Time;durP1;ratioP1;P1;durP2;ratioP2;P2;SDS_P1;SDS_P2;PMS_P1;PMS_P2;Temp;Humidity;BMP_temperature;BMP_pressure;BME280_temperature;BME280_humidity;BME280_pressure;Samples;Min_cycle;Max_cycle;Signal;HPM_P1;HPM_P2
2021/01/21 00:07:01;;;;;;;1999.90;999.90;;;;;;;8.15;56.59;99548.59;15743257;28;20544;-59
2021/01/21 00:14:34;;;;;;;1999.90;999.90;;;;;;;7.95;56.98;99543.94;15742365;28;20049;-59
2021/01/21 00:22:05;;;;;;;1999.90;999.90;;;;;;;7.87;56.56;99542.06;15742552;28;20135;-56
2021/01/21 00:29:37;;;;;;;1999.90;999.90;;;;;;;7.74;56.21;99530.09;15743023;28;20374;-56
2021/01/21 00:37:09;;;;;;;1999.90;999.90;;;;;;;8.04;55.27;99509.34;15723487;28;20139;-58
2021/01/21 00:44:41;;;;;;;1999.90;999.90;;;;;;;8.00;55.03;99516.72;15740975;28;20041;-57
2021/01/21 00:52:13;;;;;;;1999.90;999.90;;;;;;;7.84;55.09;99513.00;15740601;28;20044;-56
2021/01/21 00:59:46;;;;;;;1999.90;999.90;;;;;;;8.04;54.44;99503.78;15740169;28;20357;-58
2021/01/21 01:07:17;;;;;;;1999.90;999.90;;;;;;;8.22;53.43;99503.56;15721759;28;20037;-57
2021/01/21 01:14:50;;;;;;;1999.90;999.90;;;;;;;8.67;51.93;99487.59;15704934;28;20045;-58
2021/01/21 01:22:22;;;;;;;1999.90;999.90;;;;;;;8.88;51.13;99487.44;15721523;28;20056;-56
2021/01/21 01:29:55;;;;;;;1999.90;999.90;;;;;;;8.91;50.63;99481.16;15721619;28;20089;-58
2021/01/21 01:37:26;;;;;;;1999.90;999.90;;;;;;;8.86;50.54;99477.84;15721742;28;20051;-57
2021/01/21 01:45:05;;;;;;;1999.90;999.90;;;;;;;8.84;50.67;99469.00;15721325;28;20466;-59
2021/01/21 01:52:41;;;;;;;1999.90;999.90;;;;;;;8.88;50.76;99461.59;15721948;28;20040;-58
2021/01/21 02:00:24;;;;;;;1999.90;999.90;;;;;;;8.90;50.96;99454.50;15686275;28;20092;-59
2021/01/21 02:08:05;;;;;;;1999.90;999.90;;;;;;;8.80;50.59;99431.94;15719963;28;20118;-57
2021/01/21 02:15:55;;;;;;;1999.90;999.90;;;;;;;8.97;50.65;99428.88;15735560;28;20040;-59
2021/01/21 02:23:57;;;;;;;1999.90;999.90;;;;;;;9.24;49.94;99430.84;15713992;28;20511;-57
2021/01/21 02:32:08;;;;;;;1999.90;999.90;;;;;;;9.35;49.66;99416.41;15687736;28;20064;-59
2021/01/21 02:39:54;;;;;;;1999.90;999.90;;;;;;;9.11;50.15;99395.09;15717663;28;20048;-57
2021/01/21 02:47:26;;;;;;;1999.90;999.90;;;;;;;9.09;50.67;99394.63;15736609;28;20041;-61
2021/01/21 02:55:13;;;;;;;1999.90;999.90;;;;;;;8.94;50.68;99385.88;15700951;28;20045;-59
2021/01/21 03:02:58;;;;;;;1999.90;999.90;;;;;;;9.06;50.37;99401.69;15717153;28;20416;-59
2021/01/21 03:10:36;;;;;;;1999.90;999.90;;;;;;;9.14;50.50;99386.81;15717112;28;20048;-58
2021/01/21 03:18:08;;;;;;;1999.90;999.90;;;;;;;9.07;50.44;99386.66;15714628;28;20550;-58
2021/01/21 03:25:44;;;;;;;1999.90;999.90;;;;;;;9.02;50.83;99384.09;15716067;28;20377;-58
2021/01/21 03:33:20;;;;;;;1999.90;999.90;;;;;;;9.06;50.72;99364.72;15692812;28;20041;-59
2021/01/21 03:40:57;;;;;;;1999.90;999.90;;;;;;;8.97;50.85;99359.34;15718803;28;20106;-59
2021/01/21 03:48:32;;;;;;;1999.90;999.90;;;;;;;8.85;50.90;99360.16;15726969;28;20080;-57
2021/01/21 03:56:24;;;;;;;1999.90;999.90;;;;;;;8.84;50.50;99341.88;15699106;28;20041;-59
2021/01/21 04:03:58;;;;;;;1999.90;999.90;;;;;;;8.93;50.57;99322.25;15743108;28;20048;-57
2021/01/21 04:11:33;;;;;;;1999.90;999.90;;;;;;;8.94;50.79;99313.53;15709094;28;20080;-58
2021/01/21 04:19:10;;;;;;;1999.90;999.90;;;;;;;8.80;50.70;99298.44;15725947;28;20048;-52
2021/01/21 04:26:44;;;;;;;1999.90;999.90;;;;;;;8.95;50.38;99275.41;15723919;28;20417;-52
2021/01/21 04:34:17;;;;;;;1999.90;999.90;;;;;;;9.16;50.30;99273.16;15724343;28;20044;-51
2021/01/21 04:41:51;;;;;;;1999.90;999.90;;;;;;;8.89;50.75;99276.84;15723838;28;20048;-52
2021/01/21 04:49:29;;;;;;;1999.90;999.90;;;;;;;8.75;50.91;99252.22;15722932;28;20041;-50
2021/01/21 04:57:07;;;;;;;1999.90;999.90;;;;;;;9.02;50.65;99246.97;15721737;28;20044;-52
2021/01/21 05:05:06;;;;;;;1999.90;999.90;;;;;;;8.84;50.96;99236.16;15731284;28;20135;-55
2021/01/21 05:12:45;;;;;;;1999.90;999.90;;;;;;;8.94;50.97;99243.19;15664740;28;20045;-51
2021/01/21 05:20:40;;;;;;;1999.90;999.90;;;;;;;9.01;51.16;99242.56;15729230;28;20060;-53
2021/01/21 05:28:31;;;;;;;1999.90;999.90;;;;;;;8.95;51.06;99234.47;15739571;28;20098;-56
2021/01/21 05:36:11;;;;;;;1999.90;999.90;;;;;;;9.03;50.95;99238.25;15719942;28;20044;-55
2021/01/21 05:43:53;;;;;;;1999.90;999.90;;;;;;;9.11;51.37;99240.06;15719644;28;20097;-51
2021/01/21 05:51:34;;;;;;;1999.90;999.90;;;;;;;8.98;51.13;99234.94;15703665;28;20543;-54
2021/01/21 05:59:19;;;;;;;1999.90;999.90;;;;;;;9.12;50.52;99226.97;15717646;28;20041;-52
2021/01/21 06:07:01;;;;;;;1999.90;999.90;;;;;;;9.23;49.74;99225.25;15683981;28;20037;-55
2021/01/21 06:14:33;;;;;;;1999.90;999.90;;;;;;;9.39;49.32;99228.03;15735974;28;20044;-50
2021/01/21 06:22:09;;;;;;;1999.90;999.90;;;;;;;9.48;48.95;99218.31;15735727;28;20045;-54
2021/01/21 06:29:54;;;;;;;1999.90;999.90;;;;;;;9.70;47.97;99213.25;15717787;28;20036;-54
2021/01/21 06:37:28;;;;;;;1999.90;999.90;;;;;;;10.03;47.26;99212.75;15736277;28;20147;-54
2021/01/21 06:45:03;;;;;;;1999.90;999.90;;;;;;;10.23;47.03;99199.66;15700864;28;20527;-50
2021/01/21 06:52:37;;;;;;;1999.90;999.90;;;;;;;10.10;47.09;99202.56;15736575;28;20055;-51
2021/01/21 07:00:14;;;;;;;1999.90;999.90;;;;;;;10.24;46.59;99185.38;15735637;28;20145;-54
2021/01/21 07:08:14;;;;;;;1999.90;999.90;;;;;;;10.28;46.70;99179.84;15739577;28;20075;-52
2021/01/21 07:15:49;;;;;;;1999.90;999.90;;;;;;;10.22;47.01;99175.75;15701091;28;20056;-54
2021/01/21 07:23:22;;;;;;;1999.90;999.90;;;;;;;10.33;47.11;99162.84;15729587;28;20076;-56
2021/01/21 07:31:00;;;;;;;1999.90;999.90;;;;;;;10.25;47.54;99163.88;15746776;28;20090;-54
2021/01/21 07:38:49;;;;;;;1999.90;999.90;;;;;;;10.13;47.59;99168.41;15728298;28;20055;-52
2021/01/21 07:46:25;;;;;;;1999.90;999.90;;;;;;;10.04;48.27;99148.31;15746442;28;20048;-51
2021/01/21 07:54:03;;;;;;;1999.90;999.90;;;;;;;10.10;47.92;99118.13;15727859;28;20168;-52
2021/01/21 08:01:55;;;;;;;1999.90;999.90;;;;;;;10.51;47.95;99127.69;15727981;28;20048;-55
2021/01/21 08:09:27;;;;;;;1999.90;999.90;;;;;;;10.44;48.03;99127.59;15744276;28;20146;-54
2021/01/21 08:17:04;;;;;;;1999.90;999.90;;;;;;;10.87;47.31;99115.19;15725804;28;20036;-55
2021/01/21 08:24:56;;;;;;;1999.90;999.90;;;;;;;11.04;46.85;99104.66;15743936;28;20131;-53
2021/01/21 08:32:29;;;;;;;1999.90;999.90;;;;;;;11.45;46.56;99097.31;15709023;28;20485;-53
2021/01/21 08:40:01;;;;;;;1999.90;999.90;;;;;;;11.71;46.14;99113.22;15708776;28;20090;-54
2021/01/21 08:47:45;;;;;;;1999.90;999.90;;;;;;;11.69;45.88;99113.59;15724767;28;20496;-56
2021/01/21 08:55:17;;;;;;;1999.90;999.90;;;;;;;11.76;45.12;99124.06;15742650;28;20043;-52
2021/01/21 09:02:50;;;;;;;1999.90;999.90;;;;;;;12.17;44.50;99126.97;15742064;28;20050;-52
2021/01/21 09:10:22;;;;;;;1999.90;999.90;;;;;;;12.49;44.04;99141.31;15741199;28;20056;-56
2021/01/21 09:18:04;;;;;;;1999.90;999.90;;;;;;;13.67;41.73;99141.09;15722680;28;20581;-51
2021/01/21 09:25:35;;;;;;;1999.90;999.90;;;;;;;14.62;40.10;99116.63;15721774;28;20056;-56
2021/01/21 09:33:09;;;;;;;1999.90;999.90;;;;;;;14.97;39.45;99102.59;15738497;28;20059;-52
2021/01/21 09:40:41;;;;;;;1999.90;999.90;;;;;;;15.17;38.93;99111.41;15739402;28;20409;-58
2021/01/21 09:48:14;;;;;;;1999.90;999.90;;;;;;;15.78;37.86;99120.56;15738741;28;20124;-54
2021/01/21 09:55:47;;;;;;;1999.90;999.90;;;;;;;16.25;37.20;99111.91;15719998;28;20048;-55
2021/01/21 10:03:22;;;;;;;1999.90;999.90;;;;;;;17.21;35.56;99143.09;15737703;28;20072;-57
2021/01/21 10:10:54;;;;;;;1999.90;999.90;;;;;;;15.56;38.11;99147.91;15703483;28;20091;-51
2021/01/21 10:18:27;;;;;;;1999.90;999.90;;;;;;;16.86;35.80;99161.06;15719559;28;20068;-52
2021/01/21 10:25:59;;;;;;;1999.90;999.90;;;;;;;18.20;34.03;99156.56;15738420;28;20068;-60
2021/01/21 10:33:34;;;;;;;1999.90;999.90;;;;;;;18.81;33.41;99154.56;15736706;28;20083;-58
2021/01/21 10:41:06;;;;;;;1999.90;999.90;;;;;;;18.99;33.08;99157.13;15736072;28;20470;-59
2021/01/21 10:48:39;;;;;;;1999.90;999.90;;;;;;;17.97;34.25;99157.25;15736909;28;20481;-59
2021/01/21 10:56:11;;;;;;;1999.90;999.90;;;;;;;18.26;34.03;99167.00;15735627;28;20067;-55
2021/01/21 11:03:44;;;;;;;1999.90;999.90;;;;;;;18.07;33.89;99165.59;15735336;28;20476;-57
2021/01/21 11:11:16;;;;;;;1999.90;999.90;;;;;;;18.89;33.30;99163.75;15735174;28;20159;-59
2021/01/21 11:18:48;;;;;;;1999.90;999.90;;;;;;;18.50;34.00;99147.31;15734528;28;20076;-57
2021/01/21 11:26:20;;;;;;;1999.90;999.90;;;;;;;18.42;33.65;99158.69;15717298;28;20068;-59
2021/01/21 11:33:52;;;;;;;1999.90;999.90;;;;;;;17.76;35.32;99170.38;15734417;28;20049;-59
2021/01/21 11:41:24;;;;;;;1999.90;999.90;;;;;;;16.34;38.60;99155.28;15700265;28;20464;-58
2021/01/21 11:48:57;;;;;;;1999.90;999.90;;;;;;;16.33;38.71;99131.19;15733606;28;20120;-58
2021/01/21 11:56:28;;;;;;;1999.90;999.90;;;;;;;16.41;39.20;99129.13;15740177;28;20052;-59
2021/01/21 12:04:01;;;;;;;1999.90;999.90;;;;;;;16.16;39.69;99132.09;15745114;28;20052;-58
2021/01/21 12:11:33;;;;;;;1999.90;999.90;;;;;;;15.68;40.87;99135.44;15744376;28;20044;-59
2021/01/21 12:19:06;;;;;;;1999.90;999.90;;;;;;;15.48;41.34;99135.06;15743954;28;20139;-60
2021/01/21 12:26:38;;;;;;;1999.90;999.90;;;;;;;15.50;41.63;99127.03;15725103;28;20231;-58
2021/01/21 12:34:10;;;;;;;1999.90;999.90;;;;;;;15.50;42.25;99118.59;15742635;28;20354;-60
2021/01/21 12:41:42;;;;;;;1999.90;999.90;;;;;;;15.35;42.65;99135.91;15726743;28;20572;-60
2021/01/21 12:49:14;;;;;;;1999.90;999.90;;;;;;;15.44;42.95;99127.84;15724587;28;20139;-60
2021/01/21 12:56:46;;;;;;;1999.90;999.90;;;;;;;15.42;43.73;99133.84;15741834;28;20045;-60
2021/01/21 13:04:18;;;;;;;1999.90;999.90;;;;;;;14.99;45.61;99141.50;15740549;28;20505;-59
2021/01/21 13:11:50;;;;;;;1999.90;999.90;;;;;;;15.05;46.17;99148.34;15741947;28;20052;-59
2021/01/21 13:19:23;;;;;;;1999.90;999.90;;;;;;;15.26;45.79;99153.16;15741029;28;20036;-57
2021/01/21 13:26:55;;;;;;;1999.90;999.90;;;;;;;15.04;46.31;99172.03;15722779;28;20082;-60
2021/01/21 13:34:28;;;;;;;1999.90;999.90;;;;;;;14.39;48.73;99189.91;15739215;28;20048;-59
2021/01/21 13:42:00;;;;;;;1999.90;999.90;;;;;;;14.27;49.65;99193.03;15720929;28;20454;-58
2021/01/21 13:49:33;;;;;;;1999.90;999.90;;;;;;;13.77;50.95;99218.06;15739457;28;20174;-61
2021/01/21 13:57:05;;;;;;;1999.90;999.90;;;;;;;13.69;51.31;99227.59;15721679;28;20413;-57
2021/01/21 14:04:37;;;;;;;1999.90;999.90;;;;;;;13.53;51.98;99233.47;15720998;28;20040;-60
2021/01/21 14:12:10;;;;;;;1999.90;999.90;;;;;;;13.49;52.64;99233.47;15737533;28;20052;-58
2021/01/21 14:19:43;;;;;;;1999.90;999.90;;;;;;;13.10;53.36;99230.28;15736562;28;20516;-57
2021/01/21 14:27:15;;;;;;;1999.90;999.90;;;;;;;13.03;53.78;99216.22;15737997;28;20442;-59
2021/01/21 14:34:47;;;;;;;1999.90;999.90;;;;;;;13.45;52.59;99207.41;15737023;28;20051;-59
2021/01/21 14:42:19;;;;;;;1999.90;999.90;;;;;;;13.21;52.99;99202.41;15736882;28;20067;-60
2021/01/21 14:49:51;;;;;;;1999.90;999.90;;;;;;;12.98;53.64;99213.78;15718498;28;20489;-57
2021/01/21 14:57:23;;;;;;;1999.90;999.90;;;;;;;12.58;54.47;99197.75;15736971;28;20133;-59
2021/01/21 15:04:56;;;;;;;1999.90;999.90;;;;;;;12.51;55.11;99186.50;15718535;28;20052;-59
2021/01/21 15:12:29;;;;;;;1999.90;999.90;;;;;;;12.19;56.21;99192.50;15718678;28;20052;-55
2021/01/21 15:20:02;;;;;;;1999.90;999.90;;;;;;;11.81;57.44;99200.03;15736409;28;20128;-57
2021/01/21 15:27:34;;;;;;;1999.90;999.90;;;;;;;12.04;57.03;99197.13;15720198;28;20052;-58
2021/01/21 15:35:08;;;;;;;1999.90;999.90;;;;;;;12.18;56.98;99190.09;15729055;28;21183;-59
2021/01/21 15:42:40;;;;;;;1999.90;999.90;;;;;;;12.11;57.26;99188.84;15746768;28;20173;-59
2021/01/21 15:50:13;;;;;;;1999.90;999.90;;;;;;;11.89;58.06;99186.97;15745993;28;20070;-60
2021/01/21 15:57:45;;;;;;;1999.90;999.90;;;;;;;11.99;58.35;99175.13;15745966;28;20040;-56
2021/01/21 16:05:17;;;;;;;1999.90;999.90;;;;;;;11.89;58.21;99173.00;15745574;28;20112;-59
2021/01/21 16:12:49;;;;;;;1999.90;999.90;;;;;;;12.18;57.40;99165.75;15727546;28;20520;-56
2021/01/21 16:20:21;;;;;;;1999.90;999.90;;;;;;;12.16;56.56;99154.13;15727320;28;20044;-58
2021/01/21 16:27:53;;;;;;;1999.90;999.90;;;;;;;12.39;55.69;99179.16;15744393;28;20052;-59
2021/01/21 16:35:26;;;;;;;1999.90;999.90;;;;;;;12.34;57.06;99187.91;15726850;28;20087;-59
2021/01/21 16:42:58;;;;;;;1999.90;999.90;;;;;;;12.55;56.14;99173.38;15697474;28;20049;-59
2021/01/21 16:50:30;;;;;;;1999.90;999.90;;;;;;;12.39;56.93;99171.56;15686677;28;20033;-59
2021/01/21 16:58:02;;;;;;;1999.90;999.90;;;;;;;12.48;57.25;99190.88;15681967;28;20037;-57
2021/01/21 17:05:34;;;;;;;1999.90;999.90;;;;;;;12.66;56.83;99191.06;15710008;28;20048;-56
2021/01/21 17:13:06;;;;;;;1999.90;999.90;;;;;;;12.63;57.65;99206.63;15741099;28;20052;-58
2021/01/21 17:20:38;;;;;;;1999.90;999.90;;;;;;;12.46;58.23;99212.03;15741480;28;20514;-60
2021/01/21 17:28:10;;;;;;;1999.90;999.90;;;;;;;12.23;58.65;99212.16;15740405;28;20136;-56
2021/01/21 17:35:43;;;;;;;1999.90;999.90;;;;;;;12.30;58.09;99221.44;15739939;28;20063;-59
2021/01/21 17:43:16;;;;;;;1999.90;999.90;;;;;;;12.25;57.83;99229.34;15739753;28;20489;-59
2021/01/21 17:50:48;;;;;;;1999.90;999.90;;;;;;;12.21;57.14;99226.50;15721844;28;20036;-60
2021/01/21 17:58:20;;;;;;;1999.90;999.90;;;;;;;12.12;57.46;99235.19;15738990;28;20323;-60
2021/01/21 18:05:54;;;;;;;1999.90;999.90;;;;;;;12.50;56.71;99238.84;15712322;28;20048;-60
2021/01/21 18:13:26;;;;;;;1999.90;999.90;;;;;;;12.16;57.25;99240.81;15695479;28;20327;-61
2021/01/21 18:20:59;;;;;;;1999.90;999.90;;;;;;;12.05;57.57;99226.69;15718834;28;20117;-58
2021/01/21 18:28:31;;;;;;;1999.90;999.90;;;;;;;11.94;58.69;99225.75;15727341;28;20040;-60
2021/01/21 18:36:08;;;;;;;1999.90;999.90;;;;;;;11.81;59.68;99218.78;15728801;28;20105;-59
2021/01/21 18:43:39;;;;;;;1999.90;999.90;;;;;;;11.38;61.49;99218.09;15727970;28;20045;-60
2021/01/21 18:51:12;;;;;;;1999.90;999.90;;;;;;;11.38;61.90;99212.53;15718261;28;20056;-60
2021/01/21 18:58:43;;;;;;;1999.90;999.90;;;;;;;11.38;62.12;99218.09;15634732;28;20075;-61
2021/01/21 19:06:16;;;;;;;1999.90;999.90;;;;;;;11.37;62.25;99210.91;15664431;28;20530;-60
2021/01/21 19:13:47;;;;;;;1999.90;999.90;;;;;;;11.35;62.13;99215.25;15737787;28;20049;-60
2021/01/21 19:21:20;;;;;;;1999.90;999.90;;;;;;;11.32;61.95;99204.81;15738366;28;20088;-57
2021/01/21 19:28:52;;;;;;;1999.90;999.90;;;;;;;11.27;62.21;99198.38;15729344;28;20063;-60
2021/01/21 19:36:25;;;;;;;1999.90;999.90;;;;;;;11.04;63.23;99191.19;15735746;28;20045;-60
2021/01/21 19:43:56;;;;;;;1999.90;999.90;;;;;;;11.16;62.96;99185.44;15718437;28;20505;-56
2021/01/21 19:51:29;;;;;;;1999.90;999.90;;;;;;;10.91;64.31;99174.66;15736639;28;20048;-60
2021/01/21 19:59:01;;;;;;;1999.90;999.90;;;;;;;10.98;63.88;99177.56;15735729;28;20044;-61
2021/01/21 20:06:36;;;;;;;1999.90;999.90;;;;;;;10.80;64.42;99172.84;15722393;28;20075;-62
2021/01/21 20:14:08;;;;;;;1999.90;999.90;;;;;;;10.66;64.75;99167.84;15721442;28;20101;-61
2021/01/21 20:21:41;;;;;;;1999.90;999.90;;;;;;;10.76;64.35;99180.38;15724290;28;20083;-59
2021/01/21 20:29:12;;;;;;;1999.90;999.90;;;;;;;10.76;63.69;99160.84;15707937;28;20040;-62
2021/01/21 20:36:45;;;;;;;1999.90;999.90;;;;;;;10.76;63.22;99169.19;15742208;28;20047;-59
2021/01/21 20:44:16;;;;;;;1999.90;999.90;;;;;;;10.79;62.35;99160.88;15724459;28;20075;-59
2021/01/21 20:51:49;;;;;;;1999.90;999.90;;;;;;;10.97;61.44;99164.78;15679016;28;20049;-61
2021/01/21 20:59:20;;;;;;;1999.90;999.90;;;;;;;10.95;60.76;99164.38;15730596;28;20105;-62
2021/01/21 21:06:53;;;;;;;1999.90;999.90;;;;;;;11.01;60.26;99153.69;15677454;28;20045;-59
2021/01/21 21:14:24;;;;;;;1999.90;999.90;;;;;;;10.87;60.08;99161.81;15641282;28;20040;-59
2021/01/21 21:21:57;;;;;;;1999.90;999.90;;;;;;;11.01;59.11;99152.88;15692519;28;20044;-62
2021/01/21 21:29:29;;;;;;;1999.90;999.90;;;;;;;11.04;59.03;99140.94;15662917;28;20064;-62
2021/01/21 21:37:01;;;;;;;1999.90;999.90;;;;;;;10.93;59.25;99119.25;15738514;28;20113;-60
2021/01/21 21:44:33;;;;;;;1999.90;999.90;;;;;;;10.95;59.26;99110.53;15738816;28;20039;-61
2021/01/21 21:52:06;;;;;;;1999.90;999.90;;;;;;;10.79;59.65;99104.28;15739513;28;20469;-60
2021/01/21 21:59:37;;;;;;;1999.90;999.90;;;;;;;10.93;59.76;99110.88;15738869;28;20413;-60
2021/01/21 22:07:10;;;;;;;1999.90;999.90;;;;;;;10.66;61.37;99109.25;15736850;28;20131;-60
2021/01/21 22:14:42;;;;;;;1999.90;999.90;;;;;;;10.30;64.88;99088.28;15737549;28;20059;-60
2021/01/21 22:22:14;;;;;;;1999.90;999.90;;;;;;;10.10;67.53;99067.97;15737559;28;20037;-61
2021/01/21 22:29:46;;;;;;;1999.90;999.90;;;;;;;10.20;68.42;99047.84;15736430;28;20057;-60
2021/01/21 22:37:18;;;;;;;1999.90;999.90;;;;;;;10.06;70.15;99031.69;15735187;28;20048;-59
2021/01/21 22:44:50;;;;;;;1999.90;999.90;;;;;;;10.08;71.18;99022.97;15736886;28;20124;-60
2021/01/21 22:52:22;;;;;;;1999.90;999.90;;;;;;;10.18;71.18;98996.47;15736475;28;20055;-59
2021/01/21 22:59:54;;;;;;;1999.90;999.90;;;;;;;10.07;72.11;98982.34;15734793;28;20037;-60
2021/01/21 23:07:26;;;;;;;1999.90;999.90;;;;;;;9.89;72.51;98945.00;15700684;28;20499;-61
2021/01/21 23:14:58;;;;;;;1999.90;999.90;;;;;;;10.01;72.11;98915.00;15735185;28;20098;-61
2021/01/21 23:22:30;;;;;;;1999.90;999.90;;;;;;;10.13;71.69;98886.91;15734898;28;20052;-60
2021/01/21 23:30:03;;;;;;;1999.90;999.90;;;;;;;10.12;71.67;98865.81;15735059;28;20120;-61
2021/01/21 23:37:36;;;;;;;1999.90;999.90;;;;;;;10.30;71.75;98862.50;15735031;28;20041;-59
2021/01/21 23:45:09;;;;;;;1999.90;999.90;;;;;;;10.15;72.33;98846.72;15735097;28;20137;-58
2021/01/21 23:52:41;;;;;;;1999.90;999.90;;;;;;;10.05;71.98;98823.09;15724477;28;20631;-62
